createdAt,value
2017-09-03T00:00:50.469Z,12.6
2017-09-03T00:01:52.205Z,12.5
2017-09-03T00:02:53.734Z,12.4
2017-09-03T00:03:57.510Z,12.2
2017-09-03T00:04:58.896Z,12.2
2017-09-03T00:06:01.767Z,12.2
2017-09-03T00:07:03.062Z,12.1
2017-09-03T00:08:04.633Z,12.1
2017-09-03T00:09:06.257Z,12.1
2017-09-03T00:10:07.854Z,12.3
2017-09-03T00:11:10.828Z,12.2
2017-09-03T00:12:12.357Z,12.1
2017-09-03T00:13:14.120Z,11.9
2017-09-03T00:14:15.877Z,12.0
2017-09-03T00:15:17.275Z,12.4
2017-09-03T00:16:18.708Z,12.1
2017-09-03T00:17:20.115Z,12.0
2017-09-03T00:18:21.652Z,11.9
2017-09-03T00:19:23.173Z,11.9
2017-09-03T00:20:25.044Z,11.9
2017-09-03T00:21:27.610Z,12.0
2017-09-03T00:22:28.981Z,12.2
2017-09-03T00:23:30.359Z,12.3
2017-09-03T00:24:31.728Z,12.6
2017-09-03T00:25:33.095Z,12.1
2017-09-03T00:26:34.496Z,11.9
2017-09-03T00:27:36.014Z,11.8
2017-09-03T00:28:38.713Z,11.9
2017-09-03T00:29:40.123Z,11.9
2017-09-03T00:30:41.498Z,11.8
2017-09-03T00:31:42.867Z,11.8
2017-09-03T00:32:44.237Z,11.8
2017-09-03T00:33:45.612Z,11.7
2017-09-03T00:34:46.982Z,11.7
2017-09-03T00:35:48.642Z,11.6
2017-09-03T00:36:50.015Z,11.6
2017-09-03T00:37:51.389Z,11.6
2017-09-03T00:38:52.787Z,11.8
2017-09-03T00:39:54.158Z,11.7
2017-09-03T00:40:55.531Z,11.7
2017-09-03T00:41:56.918Z,11.7
2017-09-03T00:42:58.291Z,11.8
2017-09-03T00:43:59.669Z,11.7
2017-09-03T00:45:01.067Z,11.7
2017-09-03T00:46:02.438Z,11.7
2017-09-03T00:47:03.812Z,11.7
2017-09-03T00:48:05.181Z,11.8
2017-09-03T00:49:06.554Z,11.7
2017-09-03T00:50:07.930Z,11.7
2017-09-03T00:51:09.339Z,11.6
2017-09-03T00:52:10.705Z,11.8
2017-09-03T00:53:12.081Z,11.7
2017-09-03T00:54:13.454Z,12.1
2017-09-03T00:55:14.825Z,11.7
2017-09-03T00:56:16.194Z,11.6
2017-09-03T00:57:17.568Z,11.6
2017-09-03T00:58:18.941Z,11.6
2017-09-03T00:59:20.409Z,11.7
2017-09-03T01:00:21.777Z,11.7
2017-09-03T01:01:23.150Z,11.6
2017-09-03T01:02:24.523Z,11.7
2017-09-03T01:03:25.894Z,11.5
2017-09-03T01:04:27.267Z,11.6
2017-09-03T01:05:28.651Z,11.5
2017-09-03T01:06:30.024Z,11.5
2017-09-03T01:07:31.363Z,11.5
2017-09-03T01:08:32.728Z,11.6
2017-09-03T01:09:34.131Z,11.5
2017-09-03T01:10:35.505Z,11.5
2017-09-03T01:11:36.879Z,11.6
2017-09-03T01:12:38.256Z,11.6
2017-09-03T01:13:39.623Z,11.5
2017-09-03T01:14:40.995Z,11.4
2017-09-03T01:15:42.368Z,11.5
2017-09-03T01:16:43.741Z,11.6
2017-09-03T01:17:45.108Z,11.5
2017-09-03T01:18:46.479Z,11.5
2017-09-03T01:19:47.858Z,11.5
2017-09-03T01:20:49.249Z,11.5
2017-09-03T01:21:50.619Z,11.5
2017-09-03T01:22:52.005Z,11.4
2017-09-03T01:23:53.378Z,11.3
2017-09-03T01:24:54.776Z,11.4
2017-09-03T01:25:56.145Z,11.4
2017-09-03T01:26:57.519Z,11.4
2017-09-03T01:27:58.938Z,11.2
2017-09-03T01:29:00.331Z,11.3
2017-09-03T01:30:01.695Z,11.3
2017-09-03T01:31:03.069Z,11.4
2017-09-03T01:32:04.454Z,11.3
2017-09-03T01:33:05.830Z,11.2
2017-09-03T01:34:07.205Z,11.4
2017-09-03T01:35:08.605Z,11.4
2017-09-03T01:36:09.976Z,11.2
2017-09-03T01:37:11.346Z,11.3
2017-09-03T01:38:12.725Z,11.3
2017-09-03T01:39:14.093Z,11.2
2017-09-03T01:40:15.458Z,11.4
2017-09-03T01:41:16.830Z,11.2
2017-09-03T01:42:18.203Z,11.1
2017-09-03T01:43:19.570Z,11.0
2017-09-03T01:44:20.903Z,11.1
2017-09-03T01:45:22.298Z,11.1
2017-09-03T01:46:23.645Z,11.0
2017-09-03T01:47:25.018Z,11.1
2017-09-03T01:48:26.395Z,11.1
2017-09-03T01:49:27.763Z,11.1
2017-09-03T01:50:29.134Z,11.0
2017-09-03T01:51:30.503Z,11.2
2017-09-03T01:52:31.903Z,11.2
2017-09-03T01:53:33.273Z,11.1
2017-09-03T01:54:34.652Z,11.1
2017-09-03T01:55:36.011Z,11.1
2017-09-03T01:56:37.408Z,11.0
2017-09-03T01:57:38.802Z,11.0
2017-09-03T01:58:40.172Z,11.1
2017-09-03T01:59:42.475Z,11.0
2017-09-03T02:00:43.867Z,11.0
2017-09-03T02:01:45.286Z,10.9
2017-09-03T02:02:46.654Z,11.0
2017-09-03T02:03:48.022Z,11.0
2017-09-03T02:04:49.416Z,11.0
2017-09-03T02:05:50.789Z,10.8
2017-09-03T02:06:52.345Z,10.9
2017-09-03T02:07:53.714Z,10.9
2017-09-03T02:08:56.756Z,10.9
2017-09-03T02:09:58.085Z,11.0
2017-09-03T02:10:59.454Z,11.0
2017-09-03T02:12:00.832Z,10.9
2017-09-03T02:13:02.237Z,11.1
2017-09-03T02:14:03.611Z,11.0
2017-09-03T02:15:04.995Z,10.9
2017-09-03T02:16:06.366Z,11.0
2017-09-03T02:17:07.737Z,10.9
2017-09-03T02:18:09.107Z,10.9
2017-09-03T02:19:10.481Z,10.9
2017-09-03T02:20:12.004Z,10.9
2017-09-03T02:21:13.376Z,10.9
2017-09-03T02:22:14.745Z,10.9
2017-09-03T02:23:16.122Z,11.0
2017-09-03T02:24:17.493Z,10.9
2017-09-03T02:25:18.866Z,10.9
2017-09-03T02:26:20.257Z,11.0
2017-09-03T02:27:21.630Z,11.1
2017-09-03T02:28:23.003Z,11.0
2017-09-03T02:29:24.423Z,11.0
2017-09-03T02:30:25.805Z,11.1
2017-09-03T02:31:27.198Z,11.0
2017-09-03T02:32:28.568Z,10.9
2017-09-03T02:33:29.955Z,10.8
2017-09-03T02:34:31.324Z,10.9
2017-09-03T02:35:32.690Z,11.0
2017-09-03T02:36:34.147Z,10.9
2017-09-03T02:37:35.531Z,10.9
2017-09-03T02:38:36.904Z,10.8
2017-09-03T02:39:38.339Z,10.7
2017-09-03T02:40:39.706Z,10.7
2017-09-03T02:41:41.076Z,10.8
2017-09-03T02:42:42.449Z,10.6
2017-09-03T02:43:43.821Z,10.8
2017-09-03T02:44:45.214Z,10.8
2017-09-03T02:45:46.566Z,11.1
2017-09-03T02:46:47.936Z,11.0
2017-09-03T02:47:49.307Z,10.8
2017-09-03T02:48:50.682Z,10.7
2017-09-03T02:49:52.057Z,10.8
2017-09-03T02:50:53.427Z,11.0
2017-09-03T02:51:54.864Z,10.9
2017-09-03T02:52:56.233Z,10.7
2017-09-03T02:53:57.603Z,10.7
2017-09-03T02:54:58.974Z,10.8
2017-09-03T02:56:00.346Z,10.8
2017-09-03T02:57:01.715Z,11.0
2017-09-03T02:58:03.088Z,11.1
2017-09-03T02:59:04.458Z,11.0
2017-09-03T03:00:05.855Z,10.9
2017-09-03T03:01:07.223Z,10.9
2017-09-03T03:02:08.595Z,10.7
2017-09-03T03:03:09.969Z,10.8
2017-09-03T03:04:11.346Z,10.8
2017-09-03T03:05:12.717Z,10.7
2017-09-03T03:06:14.090Z,10.7
2017-09-03T03:07:15.462Z,10.8
2017-09-03T03:08:16.831Z,10.6
2017-09-03T03:09:18.207Z,10.7
2017-09-03T03:10:19.576Z,10.6
2017-09-03T03:11:20.949Z,10.6
2017-09-03T03:12:22.320Z,10.6
2017-09-03T03:13:23.689Z,10.6
2017-09-03T03:14:25.060Z,10.6
2017-09-03T03:15:26.429Z,10.7
2017-09-03T03:16:27.800Z,10.7
2017-09-03T03:17:29.171Z,10.6
2017-09-03T03:18:30.579Z,10.8
2017-09-03T03:19:31.953Z,10.7
2017-09-03T03:20:33.340Z,10.8
2017-09-03T03:21:34.715Z,10.8
2017-09-03T03:22:36.085Z,10.8
2017-09-03T03:23:37.454Z,10.8
2017-09-03T03:24:38.822Z,11.0
2017-09-03T03:25:40.191Z,10.9
2017-09-03T03:26:41.564Z,11.0
2017-09-03T03:27:42.935Z,11.0
2017-09-03T03:28:44.307Z,10.9
2017-09-03T03:29:45.712Z,10.9
2017-09-03T03:30:47.082Z,10.9
2017-09-03T03:31:48.449Z,11.1
2017-09-03T03:32:49.821Z,11.2
2017-09-03T03:33:51.191Z,11.0
2017-09-03T03:34:52.562Z,10.9
2017-09-03T03:35:53.936Z,10.9
2017-09-03T03:36:55.303Z,10.9
2017-09-03T03:37:56.685Z,10.8
2017-09-03T03:38:58.055Z,11.0
2017-09-03T03:39:59.460Z,10.8
2017-09-03T03:41:00.835Z,11.0
2017-09-03T03:42:02.206Z,10.9
2017-09-03T03:43:03.583Z,10.9
2017-09-03T03:44:04.962Z,10.9
2017-09-03T03:45:06.328Z,11.1
2017-09-03T03:46:07.727Z,11.1
2017-09-03T03:47:09.163Z,11.2
2017-09-03T03:48:10.495Z,11.1
2017-09-03T03:49:11.866Z,11.2
2017-09-03T03:50:13.241Z,11.2
2017-09-03T03:51:14.623Z,11.2
2017-09-03T03:52:16.023Z,11.4
2017-09-03T03:53:17.393Z,11.4
2017-09-03T03:54:18.766Z,11.2
2017-09-03T03:55:20.138Z,11.2
2017-09-03T03:56:21.522Z,11.2
2017-09-03T03:57:22.892Z,11.3
2017-09-03T03:58:24.261Z,11.2
2017-09-03T03:59:25.636Z,11.1
2017-09-03T04:00:27.012Z,11.1
2017-09-03T04:01:28.380Z,11.1
2017-09-03T04:02:29.751Z,11.1
2017-09-03T04:03:31.120Z,11.0
2017-09-03T04:04:32.494Z,11.2
2017-09-03T04:05:33.879Z,11.2
2017-09-03T04:06:35.241Z,11.2
2017-09-03T04:07:36.614Z,11.0
2017-09-03T04:08:37.984Z,11.1
2017-09-03T04:09:39.357Z,11.0
2017-09-03T04:10:40.729Z,10.9
2017-09-03T04:11:42.099Z,10.9
2017-09-03T04:12:43.471Z,10.7
2017-09-03T04:13:44.838Z,10.8
2017-09-03T04:14:46.216Z,10.8
2017-09-03T04:15:47.587Z,10.8
2017-09-03T04:16:48.960Z,10.7
2017-09-03T04:17:50.332Z,10.9
2017-09-03T04:18:51.699Z,10.6
2017-09-03T04:19:53.071Z,10.6
2017-09-03T04:20:54.439Z,10.8
2017-09-03T04:21:55.825Z,10.7
2017-09-03T04:22:57.208Z,10.6
2017-09-03T04:23:58.582Z,10.6
2017-09-03T04:24:59.952Z,10.7
2017-09-03T04:26:01.322Z,10.6
2017-09-03T04:27:02.691Z,10.7
2017-09-03T04:28:04.022Z,10.6
2017-09-03T04:29:05.406Z,10.6
2017-09-03T04:30:06.777Z,10.7
2017-09-03T04:31:08.150Z,10.7
2017-09-03T04:32:09.549Z,10.8
2017-09-03T04:33:10.937Z,10.8
2017-09-03T04:34:12.324Z,11.0
2017-09-03T04:35:13.699Z,10.9
2017-09-03T04:36:15.060Z,10.6
2017-09-03T04:37:16.470Z,10.6
2017-09-03T04:38:17.842Z,10.5
2017-09-03T04:39:19.212Z,10.6
2017-09-03T04:40:20.582Z,10.6
2017-09-03T04:41:21.980Z,10.5
2017-09-03T04:42:23.348Z,10.5
2017-09-03T04:43:24.718Z,10.5
2017-09-03T04:44:26.093Z,10.3
2017-09-03T04:45:27.464Z,10.5
2017-09-03T04:46:28.836Z,10.4
2017-09-03T04:47:30.324Z,10.4
2017-09-03T04:48:31.694Z,10.4
2017-09-03T04:49:33.064Z,10.4
2017-09-03T04:50:34.441Z,10.4
2017-09-03T04:51:35.812Z,10.5
2017-09-03T04:52:37.214Z,10.6
2017-09-03T04:53:38.587Z,10.5
2017-09-03T04:54:39.957Z,10.5
2017-09-03T04:55:41.333Z,10.5
2017-09-03T04:56:42.703Z,10.5
2017-09-03T04:57:44.073Z,10.5
2017-09-03T04:58:45.444Z,10.5
2017-09-03T04:59:46.816Z,10.6
2017-09-03T05:00:48.190Z,10.5
2017-09-03T05:01:49.574Z,10.6
2017-09-03T05:02:50.942Z,10.5
2017-09-03T05:03:52.320Z,10.6
2017-09-03T05:04:53.698Z,10.6
2017-09-03T05:05:55.068Z,10.6
2017-09-03T05:06:56.481Z,10.5
2017-09-03T05:07:57.858Z,10.6
2017-09-03T05:08:59.231Z,10.6
2017-09-03T05:10:00.606Z,10.6
2017-09-03T05:11:02.009Z,10.5
2017-09-03T05:12:03.380Z,10.5
2017-09-03T05:13:04.754Z,10.6
2017-09-03T05:14:06.126Z,10.5
2017-09-03T05:15:07.498Z,10.5
2017-09-03T05:16:08.894Z,10.5
2017-09-03T05:17:10.316Z,10.6
2017-09-03T05:18:11.682Z,10.4
2017-09-03T05:19:13.055Z,10.4
2017-09-03T05:20:14.424Z,10.5
2017-09-03T05:21:15.796Z,10.5
2017-09-03T05:22:17.168Z,10.6
2017-09-03T05:23:18.579Z,10.5
2017-09-03T05:24:19.967Z,10.6
2017-09-03T05:25:21.336Z,10.6
2017-09-03T05:26:22.706Z,10.6
2017-09-03T05:27:24.103Z,10.6
2017-09-03T05:28:25.477Z,10.6
2017-09-03T05:29:26.849Z,10.6
2017-09-03T05:30:28.223Z,10.8
2017-09-03T05:31:29.594Z,10.7
2017-09-03T05:32:30.964Z,10.7
2017-09-03T05:33:32.335Z,10.7
2017-09-03T05:34:33.708Z,10.7
2017-09-03T05:35:35.082Z,10.7
2017-09-03T05:36:36.454Z,10.7
2017-09-03T05:37:37.830Z,10.8
2017-09-03T05:38:39.201Z,10.9
2017-09-03T05:39:40.570Z,10.9
2017-09-03T05:40:41.946Z,10.8
2017-09-03T05:41:43.318Z,11.0
2017-09-03T05:42:44.692Z,11.0
2017-09-03T05:43:46.064Z,11.0
2017-09-03T05:44:47.465Z,10.9
2017-09-03T05:45:48.838Z,10.9
2017-09-03T05:46:50.207Z,11.0
2017-09-03T05:47:51.580Z,11.1
2017-09-03T05:48:52.955Z,11.2
2017-09-03T05:49:54.334Z,11.1
2017-09-03T05:50:55.709Z,11.2
2017-09-03T05:51:57.114Z,11.3
2017-09-03T05:52:58.510Z,11.2
2017-09-03T05:53:59.890Z,11.3
2017-09-03T05:55:01.272Z,11.2
2017-09-03T05:56:02.670Z,11.2
2017-09-03T05:57:04.051Z,11.4
2017-09-03T05:58:05.430Z,11.6
2017-09-03T05:59:06.807Z,11.7
2017-09-03T06:00:08.173Z,11.8
2017-09-03T06:01:09.544Z,11.6
2017-09-03T06:02:11.085Z,11.7
2017-09-03T06:03:12.462Z,11.8
2017-09-03T06:04:13.836Z,11.5
2017-09-03T06:05:15.215Z,11.9
2017-09-03T06:06:16.588Z,11.7
2017-09-03T06:07:17.990Z,11.9
2017-09-03T06:08:19.361Z,11.6
2017-09-03T06:09:21.127Z,11.9
2017-09-03T06:10:22.511Z,12.1
2017-09-03T06:11:23.880Z,12.2
2017-09-03T06:12:25.269Z,12.5
2017-09-03T06:13:26.647Z,12.0
2017-09-03T06:14:28.020Z,12.2
2017-09-03T06:15:29.419Z,12.2
2017-09-03T06:16:30.784Z,12.5
2017-09-03T06:17:32.160Z,12.5
2017-09-03T06:18:33.534Z,12.2
2017-09-03T06:19:34.911Z,12.4
2017-09-03T06:20:36.284Z,12.5
2017-09-03T06:21:39.218Z,12.5
2017-09-03T06:22:40.610Z,12.3
2017-09-03T06:23:42.027Z,12.4
2017-09-03T06:24:43.419Z,12.5
2017-09-03T06:25:44.794Z,12.4
2017-09-03T06:26:46.171Z,12.5
2017-09-03T06:27:47.545Z,13.0
2017-09-03T06:28:48.914Z,12.9
2017-09-03T06:29:50.293Z,13.0
2017-09-03T06:30:51.667Z,13.0
2017-09-03T06:31:53.069Z,12.7
2017-09-03T06:32:54.453Z,12.6
2017-09-03T06:33:55.936Z,12.6
2017-09-03T06:34:57.312Z,12.5
2017-09-03T06:35:58.713Z,12.9
2017-09-03T06:37:00.093Z,13.1
2017-09-03T06:38:01.467Z,13.4
2017-09-03T06:39:02.864Z,13.5
2017-09-03T06:40:04.247Z,13.4
2017-09-03T06:41:05.625Z,13.3
2017-09-03T06:42:07.029Z,13.5
2017-09-03T06:43:08.402Z,13.1
2017-09-03T06:44:09.772Z,12.8
2017-09-03T06:45:11.151Z,13.0
2017-09-03T06:46:12.590Z,13.2
2017-09-03T06:47:13.967Z,13.2
2017-09-03T06:48:15.341Z,13.0
2017-09-03T06:49:16.715Z,13.0
2017-09-03T06:50:18.093Z,13.0
2017-09-03T06:51:19.472Z,13.1
2017-09-03T06:52:20.843Z,12.9
2017-09-03T06:53:22.220Z,13.5
2017-09-03T06:54:23.596Z,13.7
2017-09-03T06:55:24.972Z,13.6
2017-09-03T06:56:26.350Z,13.4
2017-09-03T06:57:27.727Z,13.6
2017-09-03T06:58:29.131Z,14.0
2017-09-03T06:59:30.554Z,14.3
2017-09-03T07:00:31.929Z,14.0
2017-09-03T07:01:33.339Z,13.7
2017-09-03T07:02:35.329Z,13.5
2017-09-03T07:03:36.590Z,13.5
2017-09-03T07:04:37.965Z,13.6
2017-09-03T07:05:39.343Z,13.5
2017-09-03T07:06:40.722Z,13.5
2017-09-03T07:07:42.098Z,14.1
2017-09-03T07:08:43.474Z,14.4
2017-09-03T07:09:44.850Z,14.2
2017-09-03T07:10:46.230Z,14.0
2017-09-03T07:11:47.606Z,14.0
2017-09-03T07:12:48.986Z,13.9
2017-09-03T07:13:50.409Z,13.8
2017-09-03T07:14:51.772Z,14.1
2017-09-03T07:15:53.169Z,14.2
2017-09-03T07:16:54.540Z,14.4
2017-09-03T07:17:55.919Z,14.7
2017-09-03T07:18:57.290Z,14.7
2017-09-03T07:19:58.663Z,14.9
2017-09-03T07:21:00.039Z,14.8
2017-09-03T07:22:01.416Z,14.9
2017-09-03T07:23:02.793Z,15.1
2017-09-03T07:24:04.171Z,15.2
2017-09-03T07:25:05.581Z,15.0
2017-09-03T07:26:06.956Z,15.0
2017-09-03T07:27:08.331Z,14.8
2017-09-03T07:28:09.706Z,15.0
2017-09-03T07:29:11.083Z,15.1
2017-09-03T07:30:12.460Z,15.1
2017-09-03T07:31:13.835Z,14.9
2017-09-03T07:32:15.209Z,14.9
2017-09-03T07:33:16.584Z,15.2
2017-09-03T07:34:17.961Z,15.9
2017-09-03T07:35:19.339Z,15.4
2017-09-03T07:36:20.718Z,15.5
2017-09-03T07:37:22.096Z,16.3
2017-09-03T07:38:23.476Z,17.0
2017-09-03T07:39:24.859Z,17.2
2017-09-03T07:40:26.240Z,16.6
2017-09-03T07:41:27.636Z,16.2
2017-09-03T07:42:29.011Z,17.4
2017-09-03T07:43:31.076Z,17.5
2017-09-03T07:44:32.449Z,17.4
2017-09-03T07:45:33.831Z,17.4
2017-09-03T07:46:35.235Z,17.9
2017-09-03T07:47:36.605Z,17.8
2017-09-03T07:48:37.982Z,18.3
2017-09-03T07:49:39.361Z,18.5
2017-09-03T07:50:40.773Z,18.5
2017-09-03T07:51:42.150Z,18.0
2017-09-03T07:52:43.529Z,17.7
2017-09-03T07:53:44.911Z,17.9
2017-09-03T07:54:46.317Z,17.8
2017-09-03T07:55:47.698Z,18.1
2017-09-03T07:56:49.076Z,18.5
2017-09-03T07:57:50.455Z,18.7
2017-09-03T07:58:51.866Z,17.9
2017-09-03T07:59:53.249Z,18.2
2017-09-03T08:00:54.632Z,19.2
2017-09-03T08:01:56.010Z,20.1
2017-09-03T08:02:57.401Z,19.2
2017-09-03T08:03:58.809Z,19.1
2017-09-03T08:05:00.190Z,19.4
2017-09-03T08:06:01.569Z,19.4
2017-09-03T08:07:02.950Z,19.7
2017-09-03T08:08:04.330Z,19.4
2017-09-03T08:09:05.713Z,18.8
2017-09-03T08:10:07.093Z,19.1
2017-09-03T08:11:08.505Z,18.4
2017-09-03T08:12:09.884Z,18.4
2017-09-03T08:13:11.262Z,19.4
2017-09-03T08:14:12.645Z,20.2
2017-09-03T08:15:14.029Z,20.6
2017-09-03T08:16:15.408Z,20.0
2017-09-03T08:17:16.789Z,19.8
2017-09-03T08:18:18.161Z,19.2
2017-09-03T08:19:19.550Z,19.8
2017-09-03T08:20:20.894Z,19.7
2017-09-03T08:21:22.316Z,19.5
2017-09-03T08:22:23.702Z,20.5
2017-09-03T08:23:25.081Z,20.0
2017-09-03T08:24:26.477Z,19.3
2017-09-03T08:25:27.865Z,19.9
2017-09-03T08:26:29.250Z,19.5
2017-09-03T08:27:30.631Z,19.8
2017-09-03T08:28:32.221Z,20.6
2017-09-03T08:29:33.599Z,20.4
2017-09-03T08:30:34.982Z,20.6
2017-09-03T08:31:36.362Z,19.3
2017-09-03T08:32:37.740Z,19.1
2017-09-03T08:33:39.154Z,18.7
2017-09-03T08:34:40.536Z,18.6
2017-09-03T08:35:41.952Z,19.3
2017-09-03T08:36:43.333Z,20.3
2017-09-03T08:37:44.713Z,19.4
2017-09-03T08:38:46.126Z,19.0
2017-09-03T08:39:47.503Z,18.8
2017-09-03T08:40:48.851Z,19.5
2017-09-03T08:41:50.232Z,19.3
2017-09-03T08:42:51.614Z,19.0
2017-09-03T08:43:53.000Z,19.5
2017-09-03T08:44:54.378Z,19.4
2017-09-03T08:45:55.755Z,20.6
2017-09-03T08:46:57.136Z,21.2
2017-09-03T08:47:58.484Z,21.5
2017-09-03T08:48:59.867Z,21.5
2017-09-03T08:50:01.256Z,19.9
2017-09-03T08:51:02.654Z,20.6
2017-09-03T08:52:04.070Z,20.3
2017-09-03T08:53:05.482Z,20.8
2017-09-03T08:54:06.857Z,21.7
2017-09-03T08:55:08.240Z,21.4
2017-09-03T08:56:09.580Z,22.3
2017-09-03T08:57:10.968Z,21.5
2017-09-03T08:58:12.350Z,21.5
2017-09-03T08:59:13.732Z,21.1
2017-09-03T09:00:15.110Z,20.2
2017-09-03T09:01:16.487Z,19.9
2017-09-03T09:02:17.872Z,19.8
2017-09-03T09:03:19.253Z,20.0
2017-09-03T09:04:20.652Z,20.1
2017-09-03T09:05:22.039Z,19.7
2017-09-03T09:06:23.423Z,19.1
2017-09-03T09:07:24.807Z,19.0
2017-09-03T09:08:26.190Z,19.4
2017-09-03T09:09:27.574Z,20.3
2017-09-03T09:10:28.959Z,20.1
2017-09-03T09:11:30.345Z,21.0
2017-09-03T09:12:31.728Z,20.4
2017-09-03T09:13:33.114Z,20.3
2017-09-03T09:14:34.494Z,19.3
2017-09-03T09:15:35.875Z,19.5
2017-09-03T09:16:37.254Z,20.0
2017-09-03T09:17:38.642Z,21.0
2017-09-03T09:18:40.043Z,21.4
2017-09-03T09:19:41.423Z,21.7
2017-09-03T09:20:42.803Z,21.4
2017-09-03T09:21:44.195Z,21.2
2017-09-03T09:22:45.588Z,20.6
2017-09-03T09:23:46.969Z,19.3
2017-09-03T09:24:48.350Z,19.4
2017-09-03T09:25:49.780Z,19.1
2017-09-03T09:26:51.131Z,18.9
2017-09-03T09:27:52.508Z,19.1
2017-09-03T09:28:53.889Z,19.1
2017-09-03T09:29:55.263Z,20.0
2017-09-03T09:30:56.666Z,20.3
2017-09-03T09:31:58.039Z,20.4
2017-09-03T09:32:59.423Z,19.8
2017-09-03T09:34:00.802Z,19.6
2017-09-03T09:35:02.182Z,19.0
2017-09-03T09:36:03.565Z,19.2
2017-09-03T09:37:04.944Z,19.5
2017-09-03T09:38:06.324Z,19.9
2017-09-03T09:39:07.708Z,19.5
2017-09-03T09:40:09.091Z,19.2
2017-09-03T09:41:10.469Z,20.1
2017-09-03T09:42:11.874Z,20.5
2017-09-03T09:43:13.907Z,19.3
2017-09-03T09:44:15.291Z,19.1
2017-09-03T09:45:16.696Z,19.9
2017-09-03T09:46:18.091Z,21.3
2017-09-03T09:47:19.474Z,22.3
2017-09-03T09:48:20.863Z,22.9
2017-09-03T09:49:22.451Z,21.6
2017-09-03T09:50:23.838Z,21.2
2017-09-03T09:51:25.225Z,21.2
2017-09-03T09:52:26.603Z,22.0
2017-09-03T09:53:27.984Z,21.4
2017-09-03T09:54:29.371Z,22.1
2017-09-03T09:55:30.805Z,22.8
2017-09-03T09:56:32.188Z,21.6
2017-09-03T09:57:33.573Z,21.0
2017-09-03T09:58:34.956Z,22.2
2017-09-03T09:59:36.341Z,22.6
2017-09-03T10:00:37.723Z,22.5
2017-09-03T10:01:39.104Z,21.2
2017-09-03T10:02:40.484Z,21.2
2017-09-03T10:03:41.865Z,21.1
2017-09-03T10:04:43.243Z,20.9
2017-09-03T10:05:44.630Z,21.0
2017-09-03T10:06:46.010Z,21.2
2017-09-03T10:07:47.394Z,20.3
2017-09-03T10:08:48.782Z,20.1
2017-09-03T10:09:50.161Z,20.1
2017-09-03T10:10:51.543Z,20.6
2017-09-03T10:11:52.942Z,21.4
2017-09-03T10:12:54.344Z,23.1
2017-09-03T10:13:55.730Z,23.6
2017-09-03T10:14:57.126Z,23.9
2017-09-03T10:15:58.506Z,24.1
2017-09-03T10:16:59.897Z,25.9
2017-09-03T10:18:01.278Z,25.9
2017-09-03T10:19:02.664Z,24.5
2017-09-03T10:20:04.050Z,24.0
2017-09-03T10:21:06.085Z,24.3
2017-09-03T10:22:07.472Z,25.3
2017-09-03T10:23:08.861Z,25.3
2017-09-03T10:24:10.246Z,26.5
2017-09-03T10:25:11.638Z,26.5
2017-09-03T10:26:13.020Z,27.9
2017-09-03T10:27:14.445Z,28.4
2017-09-03T10:28:15.838Z,27.8
2017-09-03T10:29:17.219Z,27.4
2017-09-03T10:30:18.622Z,26.8
2017-09-03T10:31:20.012Z,27.4
2017-09-03T10:32:21.395Z,27.9
2017-09-03T10:33:22.792Z,27.5
2017-09-03T10:34:24.178Z,27.6
2017-09-03T10:35:25.562Z,27.3
2017-09-03T10:36:26.946Z,26.3
2017-09-03T10:37:28.352Z,24.7
2017-09-03T10:38:29.774Z,26.4
2017-09-03T10:39:31.160Z,25.9
2017-09-03T10:40:32.540Z,24.7
2017-09-03T10:41:33.920Z,25.6
2017-09-03T10:42:35.310Z,26.8
2017-09-03T10:43:36.699Z,27.6
2017-09-03T10:44:38.085Z,27.2
2017-09-03T10:45:39.481Z,28.6
2017-09-03T10:46:40.869Z,26.8
2017-09-03T10:47:42.260Z,26.6
2017-09-03T10:48:43.648Z,25.9
2017-09-03T10:49:45.076Z,28.3
2017-09-03T10:50:46.462Z,29.8
2017-09-03T10:51:47.853Z,32.7
2017-09-03T10:52:49.243Z,34.8
2017-09-03T10:53:50.680Z,34.1
2017-09-03T10:54:52.066Z,35.1
2017-09-03T10:55:53.456Z,35.7
2017-09-03T10:56:54.865Z,34.4
2017-09-03T10:57:56.427Z,34.6
2017-09-03T10:58:57.816Z,34.7
2017-09-03T11:00:00.089Z,37.1
2017-09-03T11:01:01.479Z,34.8
2017-09-03T11:02:02.899Z,34.4
2017-09-03T11:03:04.290Z,35.5
2017-09-03T11:04:05.687Z,36.8
2017-09-03T11:05:07.097Z,39.2
2017-09-03T11:06:08.510Z,37.3
2017-09-03T11:07:09.924Z,35.5
2017-09-03T11:08:11.314Z,35.3
2017-09-03T11:09:12.707Z,37.9
2017-09-03T11:10:14.100Z,36.0
2017-09-03T11:11:15.491Z,37.4
2017-09-03T11:12:16.884Z,39.4
2017-09-03T11:13:18.280Z,39.8
2017-09-03T11:14:19.715Z,36.5
2017-09-03T11:15:21.111Z,36.0
2017-09-03T11:16:22.513Z,37.8
2017-09-03T11:17:23.902Z,38.0
2017-09-03T11:18:25.299Z,40.7
2017-09-03T11:19:26.699Z,39.5
2017-09-03T11:20:28.092Z,40.4
2017-09-03T11:21:29.487Z,41.9
2017-09-03T11:22:30.926Z,40.9
2017-09-03T11:23:32.318Z,39.3
2017-09-03T11:24:33.769Z,37.4
2017-09-03T11:25:35.163Z,34.7
2017-09-03T11:26:36.551Z,29.9
2017-09-03T11:27:38.047Z,29.4
2017-09-03T11:28:39.444Z,33.6
2017-09-03T11:29:40.877Z,31.0
2017-09-03T11:30:42.268Z,30.9
2017-09-03T11:31:43.661Z,28.6
2017-09-03T11:32:45.058Z,32.0
2017-09-03T11:33:46.481Z,37.2
2017-09-03T11:34:47.877Z,40.4
2017-09-03T11:35:49.272Z,39.4
2017-09-03T11:36:50.702Z,38.1
2017-09-03T11:37:52.147Z,35.0
2017-09-03T11:38:53.541Z,33.0
2017-09-03T11:39:54.958Z,37.6
2017-09-03T11:40:56.350Z,34.6
2017-09-03T11:41:57.749Z,33.1
2017-09-03T11:42:59.879Z,31.4
2017-09-03T11:44:01.275Z,33.5
2017-09-03T11:45:02.666Z,35.8
2017-09-03T11:46:04.058Z,36.6
2017-09-03T11:47:05.450Z,35.9
2017-09-03T11:48:06.857Z,32.8
2017-09-03T11:49:08.251Z,37.9
2017-09-03T11:50:09.643Z,41.8
2017-09-03T11:51:11.139Z,41.6
2017-09-03T11:52:12.524Z,37.8
2017-09-03T11:53:13.927Z,33.4
2017-09-03T11:54:15.320Z,30.9
2017-09-03T11:55:16.726Z,31.8
2017-09-03T11:56:18.136Z,32.1
2017-09-03T11:57:19.558Z,36.8
2017-09-03T11:58:20.977Z,38.1
2017-09-03T11:59:22.381Z,37.0
2017-09-03T12:00:23.780Z,38.5
2017-09-03T12:01:25.231Z,39.2
2017-09-03T12:02:26.568Z,36.0
2017-09-03T12:03:27.964Z,31.7
2017-09-03T12:04:29.358Z,29.3
2017-09-03T12:05:30.749Z,27.4
2017-09-03T12:06:32.140Z,31.5
2017-09-03T12:07:33.532Z,31.3
2017-09-03T12:08:34.976Z,34.8
2017-09-03T12:09:36.368Z,37.6
2017-09-03T12:10:37.759Z,37.8
2017-09-03T12:11:39.190Z,39.6
2017-09-03T12:12:40.584Z,40.7
2017-09-03T12:13:41.975Z,39.7
2017-09-03T12:14:43.410Z,34.4
2017-09-03T12:15:44.924Z,35.5
2017-09-03T12:16:46.329Z,35.4
2017-09-03T12:17:47.865Z,39.6
2017-09-03T12:18:49.274Z,42.0
2017-09-03T12:19:50.671Z,44.5
2017-09-03T12:20:52.078Z,44.5
2017-09-03T12:21:53.471Z,39.4
2017-09-03T12:22:54.865Z,33.5
2017-09-03T12:23:56.265Z,33.9
2017-09-03T12:24:57.681Z,35.7
2017-09-03T12:25:59.077Z,36.4
2017-09-03T12:27:00.581Z,40.8
2017-09-03T12:28:01.991Z,36.3
2017-09-03T12:29:03.428Z,40.7
2017-09-03T12:30:04.822Z,37.7
2017-09-03T12:31:06.330Z,36.5
2017-09-03T12:32:07.726Z,38.4
2017-09-03T12:33:09.123Z,41.2
2017-09-03T12:34:10.568Z,42.7
2017-09-03T12:35:11.984Z,37.9
2017-09-03T12:36:13.381Z,35.5
2017-09-03T12:37:14.784Z,40.3
2017-09-03T12:38:16.187Z,36.4
2017-09-03T12:39:17.585Z,34.9
2017-09-03T12:40:18.996Z,36.8
2017-09-03T12:41:20.392Z,36.6
2017-09-03T12:42:21.789Z,34.9
2017-09-03T12:43:23.188Z,39.1
2017-09-03T12:44:24.585Z,36.1
2017-09-03T12:45:25.986Z,32.8
2017-09-03T12:46:27.382Z,32.8
2017-09-03T12:47:28.782Z,34.5
2017-09-03T12:48:30.176Z,33.5
2017-09-03T12:49:31.574Z,35.7
2017-09-03T12:50:32.968Z,35.9
2017-09-03T12:51:34.970Z,36.1
2017-09-03T12:52:36.726Z,38.4
2017-09-03T12:53:38.134Z,37.5
2017-09-03T12:54:39.531Z,40.5
2017-09-03T12:55:40.927Z,45.3
2017-09-03T12:56:42.330Z,43.4
2017-09-03T12:57:43.729Z,39.5
2017-09-03T12:58:45.127Z,36.1
2017-09-03T12:59:46.514Z,35.6
2017-09-03T13:00:47.934Z,37.3
2017-09-03T13:01:49.353Z,35.8
2017-09-03T13:02:50.749Z,33.1
2017-09-03T13:03:52.143Z,37.8
2017-09-03T13:04:53.554Z,37.1
2017-09-03T13:05:54.940Z,39.0
2017-09-03T13:06:56.346Z,43.4
2017-09-03T13:07:57.791Z,36.1
2017-09-03T13:08:59.196Z,36.8
2017-09-03T13:10:00.591Z,40.7
2017-09-03T13:11:01.990Z,40.3
2017-09-03T13:12:03.385Z,39.2
2017-09-03T13:13:04.831Z,40.6
2017-09-03T13:14:06.226Z,43.0
2017-09-03T13:15:07.626Z,47.5
2017-09-03T13:16:09.022Z,45.3
2017-09-03T13:17:10.422Z,48.9
2017-09-03T13:18:11.818Z,49.8
2017-09-03T13:19:13.215Z,47.8
2017-09-03T13:20:14.608Z,47.9
2017-09-03T13:21:16.017Z,45.7
2017-09-03T13:22:17.414Z,45.2
2017-09-03T13:23:18.831Z,40.6
2017-09-03T13:24:20.234Z,37.9
2017-09-03T13:25:21.630Z,33.8
2017-09-03T13:26:23.062Z,30.9
2017-09-03T13:27:24.503Z,32.0
2017-09-03T13:28:25.898Z,36.7
2017-09-03T13:29:27.322Z,40.5
2017-09-03T13:30:28.721Z,45.8
2017-09-03T13:31:30.117Z,43.7
2017-09-03T13:32:31.513Z,39.9
2017-09-03T13:33:32.916Z,36.7
2017-09-03T13:34:34.316Z,35.4
2017-09-03T13:35:35.717Z,37.1
2017-09-03T13:36:37.119Z,40.6
2017-09-03T13:37:38.527Z,45.2